Time;durP1;ratioP1;P1;durP2;ratioP2;P2;SDS_P1;SDS_P2;PMS_P1;PMS_P2;Temp;Humidity;BMP_temperature;BMP_pressure;BME280_temperature;BME280_humidity;BME280_pressure;Samples;Min_cycle;Max_cycle;Signal;HPM_P1;HPM_P2
2023/03/16 00:00:44;;;;;;;32.55;16.55;;;;;;;11.51;81.98;99707.19;4970137;28;20470;-81
2023/03/16 00:03:10;;;;;;;33.50;15.30;;;;;;;11.58;82.04;99713.66;4970244;28;20062;-81
2023/03/16 00:05:36;;;;;;;33.60;14.38;;;;;;;11.62;81.86;99715.03;4970411;28;20105;-83
2023/03/16 00:08:02;;;;;;;42.17;14.45;;;;;;;11.74;81.51;99724.59;4970468;28;20027;-83
2023/03/16 00:10:28;;;;;;;27.95;14.15;;;;;;;11.77;81.14;99718.09;4970440;28;20529;-81
2023/03/16 00:12:54;;;;;;;35.53;15.80;;;;;;;11.82;80.79;99719.31;4970624;28;20534;-83
2023/03/16 00:15:20;;;;;;;38.35;16.45;;;;;;;11.81;80.35;99720.31;4970698;28;20035;-81
2023/03/16 00:17:48;;;;;;;25.58;13.18;;;;;;;11.83;80.52;99712.09;4970495;28;20030;-81
2023/03/16 00:20:16;;;;;;;37.28;14.13;;;;;;;11.86;80.49;99717.97;4970309;28;20042;-82
2023/03/16 00:22:41;;;;;;;33.05;14.90;;;;;;;11.85;80.46;99721.69;4969314;28;20376;-82
2023/03/16 00:25:08;;;;;;;40.38;15.60;;;;;;;11.84;80.81;99725.38;4970521;28;20050;-82
2023/03/16 00:27:33;;;;;;;31.83;14.15;;;;;;;11.81;80.91;99711.38;4972588;28;20504;-82
2023/03/16 00:30:02;;;;;;;28.70;13.88;;;;;;;11.96;80.60;99721.44;4974706;28;20118;-81
2023/03/16 00:32:30;;;;;;;26.63;13.27;;;;;;;12.06;80.65;99724.06;4975197;28;20401;-83
2023/03/16 00:34:56;;;;;;;30.75;15.55;;;;;;;12.09;79.73;99722.88;4975338;28;20055;-83
2023/03/16 00:37:23;;;;;;;27.98;15.30;;;;;;;12.15;79.68;99717.72;4976928;28;20107;-81
2023/03/16 00:39:49;;;;;;;27.15;13.18;;;;;;;12.20;79.18;99714.56;4992456;28;20098;-79
2023/03/16 00:42:16;;;;;;;27.02;15.05;;;;;;;12.22;79.37;99718.81;4995640;28;20026;-79
2023/03/16 00:44:42;;;;;;;22.75;12.70;;;;;;;12.18;78.95;99713.84;4986142;28;20193;-81
2023/03/16 00:47:07;;;;;;;28.08;12.35;;;;;;;12.15;79.10;99722.25;4973717;28;20499;-82
2023/03/16 00:49:34;;;;;;;25.02;13.45;;;;;;;12.16;79.17;99729.34;4973907;28;20058;-83
2023/03/16 00:52:05;;;;;;;31.40;14.52;;;;;;;12.18;79.06;99719.25;4973903;28;20045;-81
2023/03/16 00:54:32;;;;;;;24.30;13.93;;;;;;;12.20;79.11;99714.56;4973464;28;20109;-82
2023/03/16 00:56:58;;;;;;;27.05;13.18;;;;;;;12.17;78.82;99723.78;4973331;28;20077;-82
2023/03/16 00:59:25;;;;;;;27.58;13.02;;;;;;;12.19;78.73;99723.66;4972973;28;20042;-82
2023/03/16 01:01:51;;;;;;;32.20;14.70;;;;;;;12.10;78.66;99724.59;4972628;28;20482;-82
2023/03/16 01:04:17;;;;;;;27.73;13.15;;;;;;;12.12;79.28;99723.44;4972963;28;20122;-81
2023/03/16 01:06:43;;;;;;;27.75;15.45;;;;;;;12.12;78.63;99719.88;4972707;28;20479;-80
2023/03/16 01:09:09;;;;;;;29.63;14.63;;;;;;;12.12;78.51;99711.78;4973434;28;20113;-82
2023/03/16 01:11:34;;;;;;;29.25;13.70;;;;;;;12.11;78.07;99715.53;4973437;28;20114;-82
2023/03/16 01:14:00;;;;;;;30.25;15.55;;;;;;;12.02;78.03;99718.13;4972966;28;20113;-81
2023/03/16 01:16:26;;;;;;;34.80;17.05;;;;;;;12.09;78.42;99725.59;4972843;28;20069;-82
2023/03/16 01:18:51;;;;;;;25.60;15.77;;;;;;;12.08;78.00;99726.59;4972803;28;20118;-81
2023/03/16 01:21:17;;;;;;;31.73;15.82;;;;;;;12.05;77.90;99719.66;4972796;28;20030;-83
2023/03/16 01:23:43;;;;;;;26.42;15.93;;;;;;;12.08;77.95;99715.81;4972950;28;20035;-83
2023/03/16 01:26:10;;;;;;;27.45;15.43;;;;;;;12.06;77.63;99710.56;4972637;28;20503;-81
2023/03/16 01:28:36;;;;;;;30.33;14.77;;;;;;;12.17;77.22;99731.06;4972659;28;20069;-82
2023/03/16 01:31:08;;;;;;;34.53;15.65;;;;;;;12.14;77.24;99731.38;4972482;28;20086;-82
2023/03/16 01:33:35;;;;;;;24.17;13.90;;;;;;;12.15;76.89;99727.66;4973461;28;20117;-82
2023/03/16 01:36:07;;;;;;;27.52;15.25;;;;;;;12.09;76.84;99728.28;4972867;28;20135;-81
2023/03/16 01:38:33;;;;;;;28.27;14.57;;;;;;;11.97;77.16;99733.06;4981836;28;20030;-82
2023/03/16 01:40:59;;;;;;;31.05;14.30;;;;;;;11.95;77.64;99738.63;4992670;28;20069;-82
2023/03/16 01:43:27;;;;;;;32.05;14.32;;;;;;;11.94;77.48;99736.94;4983701;28;20029;-81
2023/03/16 01:46:04;;;;;;;28.63;14.75;;;;;;;12.00;77.20;99738.16;4972864;28;20031;-82
2023/03/16 01:48:36;;;;;;;28.15;15.57;;;;;;;12.10;77.07;99748.84;4972526;28;20031;-81
2023/03/16 01:51:03;;;;;;;27.00;14.20;;;;;;;12.10;77.07;99751.53;4972334;28;20462;-84
2023/03/16 01:53:32;;;;;;;28.45;15.60;;;;;;;12.06;76.69;99755.53;4971892;28;20027;-84
2023/03/16 01:56:00;;;;;;;30.50;15.48;;;;;;;12.11;76.70;99750.56;4971831;28;20042;-80
2023/03/16 01:58:27;;;;;;;24.85;15.40;;;;;;;12.16;76.66;99756.31;4972079;28;20113;-82
2023/03/16 02:00:53;;;;;;;33.40;16.27;;;;;;;12.00;76.43;99749.78;4972292;28;20141;-81
2023/03/16 02:03:20;;;;;;;24.60;16.33;;;;;;;12.11;76.64;99758.63;4985634;28;20043;-81
2023/03/16 02:06:24;;;;;;;27.25;16.50;;;;;;;12.11;76.31;99756.75;4971543;28;20031;-81
2023/03/16 02:08:54;;;;;;;24.55;16.17;;;;;;;12.10;76.45;99762.31;4950085;29;20089;-81
2023/03/16 02:11:21;;;;;;;41.08;17.75;;;;;;;12.11;76.42;99769.41;4949900;29;20039;-82
2023/03/16 02:13:47;;;;;;;26.45;17.15;;;;;;;12.12;76.57;99765.69;4950011;28;20039;-83
2023/03/16 02:16:18;;;;;;;25.65;17.23;;;;;;;12.13;76.06;99762.00;4950124;29;20035;-83
2023/03/16 02:18:47;;;;;;;35.05;18.98;;;;;;;12.08;75.96;99758.94;4949831;28;20515;-82
2023/03/16 02:21:15;;;;;;;33.97;17.25;;;;;;;12.09;76.23;99771.41;4949800;29;20054;-81
2023/03/16 02:23:43;;;;;;;27.48;16.85;;;;;;;12.08;76.09;99764.34;4949568;28;20102;-80
2023/03/16 02:26:14;;;;;;;27.23;17.27;;;;;;;12.13;76.46;99767.41;4949771;28;20474;-80
2023/03/16 02:28:50;;;;;;;27.05;17.80;;;;;;;12.00;75.69;99768.66;4949455;29;20514;-80
2023/03/16 02:31:17;;;;;;;29.08;18.00;;;;;;;11.95;76.15;99776.34;4949912;29;20039;-83
2023/03/16 02:33:45;;;;;;;23.13;18.23;;;;;;;12.00;76.31;99776.72;4949433;28;20066;-81
2023/03/16 02:36:13;;;;;;;27.05;17.27;;;;;;;11.97;76.91;99786.97;4949758;29;20075;-83
2023/03/16 02:38:40;;;;;;;28.02;16.50;;;;;;;11.95;76.78;99770.97;4966149;28;20039;-80
2023/03/16 02:41:26;;;;;;;27.83;19.08;;;;;;;12.02;76.93;99775.75;4989098;28;20026;-82
2023/03/16 02:44:06;;;;;;;27.70;17.85;;;;;;;12.02;76.74;99762.25;4973630;28;20035;-83
2023/03/16 02:46:34;;;;;;;21.92;15.52;;;;;;;12.07;76.16;99781.50;4972033;28;20022;-83
2023/03/16 02:49:10;;;;;;;29.08;17.63;;;;;;;12.05;76.37;99786.22;4971352;28;20027;-82
2023/03/16 02:51:35;;;;;;;25.05;18.25;;;;;;;11.94;76.56;99768.41;4971141;28;20066;-81
2023/03/16 02:54:01;;;;;;;23.73;16.48;;;;;;;11.95;76.51;99776.34;4971743;28;20073;-82
2023/03/16 02:56:26;;;;;;;22.30;16.42;;;;;;;11.83;76.77;99782.94;4971315;28;20042;-81
2023/03/16 02:58:52;;;;;;;33.05;20.42;;;;;;;11.80;77.18;99774.34;4971293;28;20039;-81
2023/03/16 03:01:17;;;;;;;19.77;14.90;;;;;;;11.87;76.87;99784.34;4971233;28;20066;-81
2023/03/16 03:03:43;;;;;;;19.15;13.57;;;;;;;11.92;76.35;99792.84;4971171;28;20027;-81
2023/03/16 03:06:09;;;;;;;15.82;12.98;;;;;;;11.90;76.21;99778.66;4971534;28;20038;-81
2023/03/16 03:08:34;;;;;;;17.42;13.43;;;;;;;11.87;76.13;99791.56;4971334;28;20045;-81
2023/03/16 03:11:00;;;;;;;18.52;14.20;;;;;;;11.88;76.48;99791.44;4971242;28;20494;-82
2023/03/16 03:13:25;;;;;;;17.10;13.18;;;;;;;11.86;76.65;99797.97;4970817;28;20026;-81
2023/03/16 03:15:51;;;;;;;19.90;14.65;;;;;;;11.88;76.38;99796.81;4971019;28;20081;-82
2023/03/16 03:18:17;;;;;;;19.35;14.65;;;;;;;11.86;76.75;99804.19;4971000;28;20026;-83
2023/03/16 03:20:42;;;;;;;25.63;15.15;;;;;;;11.80;76.49;99796.72;4970543;28;20039;-83
2023/03/16 03:23:08;;;;;;;22.45;15.18;;;;;;;11.84;76.61;99798.13;4971060;28;20570;-81
2023/03/16 03:25:33;;;;;;;20.25;14.73;;;;;;;11.95;76.83;99814.09;4970718;28;20077;-81
2023/03/16 03:28:00;;;;;;;18.27;14.20;;;;;;;11.93;76.64;99810.69;4970600;28;20459;-81
2023/03/16 03:30:26;;;;;;;24.83;15.20;;;;;;;12.00;76.52;99811.75;4970673;28;20148;-84
2023/03/16 03:32:52;;;;;;;20.77;14.65;;;;;;;12.11;76.27;99823.31;4970962;28;20506;-81
2023/03/16 03:35:18;;;;;;;22.15;14.65;;;;;;;12.12;76.12;99819.59;4970168;28;20055;-81
2023/03/16 03:37:44;;;;;;;26.33;14.68;;;;;;;12.16;75.87;99821.00;4977720;28;20089;-83
2023/03/16 03:40:12;;;;;;;21.55;15.50;;;;;;;12.15;76.05;99822.00;4989865;28;20018;-82
2023/03/16 03:42:38;;;;;;;26.90;15.90;;;;;;;12.21;76.09;99829.47;4985215;28;20750;-84
2023/03/16 03:45:04;;;;;;;22.45;16.02;;;;;;;12.23;75.72;99827.47;4970324;28;20573;-81
2023/03/16 03:47:30;;;;;;;23.80;15.32;;;;;;;12.24;75.67;99837.25;4970386;28;20174;-83
2023/03/16 03:49:55;;;;;;;20.25;15.57;;;;;;;12.17;75.85;99817.31;4970820;28;20110;-82
2023/03/16 03:52:21;;;;;;;24.45;16.50;;;;;;;12.33;75.06;99839.00;4970572;28;20473;-82
2023/03/16 03:54:46;;;;;;;23.63;15.88;;;;;;;12.35;75.32;99843.25;4970522;28;20502;-82
2023/03/16 03:57:12;;;;;;;32.47;17.95;;;;;;;12.36;74.76;99841.38;4970970;28;20031;-82
2023/03/16 03:59:42;;;;;;;22.25;16.30;;;;;;;12.28;75.30;99835.94;4970653;28;20494;-81
2023/03/16 04:02:08;;;;;;;29.52;17.52;;;;;;;12.39;75.29;99846.47;4953570;28;20043;-83
2023/03/16 04:04:35;;;;;;;23.63;17.02;;;;;;;12.43;75.30;99850.56;4974720;28;20031;-82
2023/03/16 04:07:00;;;;;;;21.75;16.52;;;;;;;12.40;75.28;99842.78;4974423;28;20038;-81
2023/03/16 04:09:26;;;;;;;32.10;19.08;;;;;;;12.39;75.46;99849.16;4974758;28;20030;-82
2023/03/16 04:11:51;;;;;;;29.88;19.65;;;;;;;12.40;75.98;99856.28;4974635;28;20114;-82
2023/03/16 04:14:17;;;;;;;34.15;19.05;;;;;;;12.49;76.27;99860.72;4973181;28;20141;-82
2023/03/16 04:16:43;;;;;;;35.65;20.80;;;;;;;12.44;75.79;99857.66;4975630;28;20026;-82
2023/03/16 04:19:10;;;;;;;25.67;19.10;;;;;;;12.48;75.81;99864.41;4974865;28;20023;-83
2023/03/16 04:21:35;;;;;;;34.10;21.88;;;;;;;12.47;76.14;99868.13;4974126;28;20054;-84
2023/03/16 04:24:03;;;;;;;38.08;21.23;;;;;;;12.49;76.45;99869.66;4973959;28;20061;-81
2023/03/16 04:26:30;;;;;;;33.33;22.33;;;;;;;12.53;76.57;99878.31;4974779;28;20050;-82
2023/03/16 04:28:55;;;;;;;33.20;21.85;;;;;;;12.59;76.20;99882.22;4974850;28;20026;-83
2023/03/16 04:31:21;;;;;;;38.13;23.20;;;;;;;12.44;76.71;99863.06;4974354;28;20031;-82
2023/03/16 04:33:47;;;;;;;38.92;21.80;;;;;;;12.42;76.69;99873.13;4976491;28;20054;-90
2023/03/16 04:36:12;;;;;;;39.17;22.27;;;;;;;12.47;77.29;99890.56;4982532;28;20046;-84
2023/03/16 04:38:39;;;;;;;38.10;23.83;;;;;;;12.42;76.91;99887.47;4995355;28;20049;-84
2023/03/16 04:41:05;;;;;;;49.95;24.50;;;;;;;12.37;77.13;99894.31;4986492;28;20023;-80
2023/03/16 04:43:34;;;;;;;48.00;23.92;;;;;;;12.33;78.11;99892.94;4977927;28;20029;-82
2023/03/16 04:46:01;;;;;;;48.58;25.63;;;;;;;12.27;78.70;99894.41;4977038;28;20038;-82
2023/03/16 04:48:31;;;;;;;44.10;24.80;;;;;;;12.24;79.14;99897.41;4971842;28;20090;-80
2023/03/16 04:50:56;;;;;;;48.15;24.67;;;;;;;12.22;79.83;99904.81;4964564;28;20031;-82
2023/03/16 04:53:22;;;;;;;49.15;25.98;;;;;;;12.23;79.53;99903.78;4965387;28;20446;-80
2023/03/16 04:55:47;;;;;;;48.33;26.08;;;;;;;12.26;79.79;99911.56;4966865;28;20039;-83
2023/03/16 04:58:13;;;;;;;42.35;24.63;;;;;;;12.28;79.86;99911.44;4967004;28;20110;-81
2023/03/16 05:00:40;;;;;;;42.13;23.58;;;;;;;12.32;79.39;99918.22;4973289;28;20037;-82
2023/03/16 05:03:09;;;;;;;39.40;22.63;;;;;;;12.21;79.12;99913.03;4960890;28;20028;-83
2023/03/16 05:05:35;;;;;;;38.45;21.65;;;;;;;12.12;79.14;99917.50;4954352;28;20035;-84
2023/03/16 05:08:00;;;;;;;36.95;20.05;;;;;;;11.88;79.90;99910.00;4962619;28;20050;-85
2023/03/16 05:10:26;;;;;;;39.65;20.55;;;;;;;11.86;80.32;99909.28;4963908;28;20058;-84
2023/03/16 05:12:52;;;;;;;33.58;19.42;;;;;;;11.71;80.62;99918.84;4962727;28;20086;-82
2023/03/16 05:15:17;;;;;;;34.70;19.25;;;;;;;11.80;80.61;99917.97;4971844;28;20040;-85
2023/03/16 05:17:43;;;;;;;31.65;19.58;;;;;;;11.72;80.60;99925.94;4973938;28;20109;-85
2023/03/16 05:20:11;;;;;;;30.45;18.90;;;;;;;11.74;80.75;99923.94;4973364;28;20035;-85
2023/03/16 05:22:40;;;;;;;27.80;18.15;;;;;;;11.67;80.86;99941.69;4973584;28;20363;-84
2023/03/16 05:25:05;;;;;;;28.05;17.13;;;;;;;11.56;80.81;99949.94;4973913;28;20121;-83
2023/03/16 05:27:31;;;;;;;30.38;18.92;;;;;;;11.52;81.07;99951.25;4980338;28;20062;-87
2023/03/16 05:29:56;;;;;;;32.10;19.00;;;;;;;11.46;81.69;99941.06;4981034;28;20111;-87
2023/03/16 05:32:22;;;;;;;28.08;19.13;;;;;;;11.47;81.79;99951.66;4972038;28;20023;-84
2023/03/16 05:34:47;;;;;;;27.13;17.83;;;;;;;11.35;82.01;99946.59;4963718;28;20056;-84
2023/03/16 05:37:12;;;;;;;33.75;16.38;;;;;;;11.32;82.38;99944.22;4964864;29;20027;-82
2023/03/16 05:39:38;;;;;;;31.40;18.90;;;;;;;11.34;83.14;99936.84;4973322;29;20042;-83
2023/03/16 05:42:04;;;;;;;29.80;17.17;;;;;;;11.36;83.51;99951.88;4962672;28;20125;-85
2023/03/16 05:44:31;;;;;;;26.08;17.33;;;;;;;11.40;83.38;99953.28;4953478;28;20445;-81
2023/03/16 05:46:56;;;;;;;34.85;18.35;;;;;;;11.37;83.21;99931.19;4955984;28;20031;-83
2023/03/16 05:49:22;;;;;;;35.63;18.98;;;;;;;11.32;83.01;99949.59;4964180;28;20022;-82
2023/03/16 05:51:49;;;;;;;28.58;17.90;;;;;;;11.27;83.53;99959.97;4962311;28;20110;-83
2023/03/16 05:54:14;;;;;;;32.45;19.27;;;;;;;11.33;84.11;99952.16;4953443;28;20034;-84
2023/03/16 05:56:40;;;;;;;26.77;18.90;;;;;;;11.47;84.52;99961.59;4953722;28;20027;-86
2023/03/16 05:59:05;;;;;;;36.45;21.15;;;;;;;11.44;84.73;99962.72;4951690;29;20069;-86
2023/03/16 06:01:32;;;;;;;42.15;22.63;;;;;;;11.45;84.74;99960.91;4953665;28;20059;-87
2023/03/16 06:03:58;;;;;;;34.53;20.80;;;;;;;11.52;85.03;99962.00;4953610;28;20039;-86
2023/03/16 06:06:24;;;;;;;33.15;22.05;;;;;;;11.60;84.68;99972.03;4953661;28;20030;-84
2023/03/16 06:08:51;;;;;;;43.20;25.02;;;;;;;11.61;85.25;99966.53;4953550;28;20062;-83
2023/03/16 06:11:16;;;;;;;48.88;26.05;;;;;;;11.68;85.31;99966.78;4951010;28;20486;-86
2023/03/16 06:13:42;;;;;;;43.35;22.17;;;;;;;11.70;84.74;99971.06;4954341;28;20031;-87
2023/03/16 06:16:10;;;;;;;38.05;21.95;;;;;;;11.78;84.91;99979.22;4953945;28;20023;-91
2023/03/16 06:18:36;;;;;;;31.95;21.13;;;;;;;11.83;84.46;99981.50;4957000;28;20031;-92
2023/03/16 06:21:02;;;;;;;36.47;22.77;;;;;;;11.87;84.47;99972.94;4954784;28;20038;-91
2023/03/16 06:23:28;;;;;;;35.15;21.55;;;;;;;11.91;84.58;99974.34;4955628;28;20490;-86
2023/03/16 06:25:54;;;;;;;34.97;22.77;;;;;;;11.90;83.78;99988.81;4957581;28;20030;-91
2023/03/16 06:28:19;;;;;;;37.67;22.95;;;;;;;11.83;83.93;99982.31;4955696;28;20090;-89
2023/03/16 06:30:45;;;;;;;38.35;23.55;;;;;;;11.89;83.44;99991.69;4960256;28;20106;-90
2023/03/16 06:33:10;;;;;;;34.33;23.98;;;;;;;11.88;83.65;99984.59;4957634;28;20114;-89
2023/03/16 06:35:36;;;;;;;39.05;25.98;;;;;;;11.93;83.53;99993.91;4968953;28;20062;-86
2023/03/16 06:38:01;;;;;;;44.80;26.95;;;;;;;11.93;83.86;100001.13;4973497;28;20035;-87
2023/03/16 06:40:26;;;;;;;41.28;26.17;;;;;;;11.97;83.36;100000.72;4964088;29;20035;-86
2023/03/16 06:42:52;;;;;;;35.30;23.73;;;;;;;11.92;83.49;99997.63;4953698;29;20038;-86
2023/03/16 06:45:20;;;;;;;34.17;22.58;;;;;;;11.93;83.28;99999.31;4952360;28;20238;-85
2023/03/16 06:47:47;;;;;;;40.40;23.52;;;;;;;11.98;83.54;100012.34;4951870;28;20458;-86
2023/03/16 06:50:13;;;;;;;38.33;23.75;;;;;;;11.97;83.47;100013.31;4951719;28;20526;-85
2023/03/16 06:52:40;;;;;;;36.28;25.00;;;;;;;11.99;83.01;100020.25;4952151;28;20069;-85
2023/03/16 06:55:06;;;;;;;50.92;22.35;;;;;;;11.95;83.05;100028.81;4950314;28;20044;-83
2023/03/16 06:57:32;;;;;;;40.22;25.25;;;;;;;11.93;82.91;100026.25;4948805;29;20066;-83
2023/03/16 06:59:57;;;;;;;42.90;26.25;;;;;;;11.90;82.96;100029.25;4932736;29;20047;-83
2023/03/16 07:02:23;;;;;;;29.23;17.30;;;;;;;11.93;82.92;100031.63;4948779;28;20047;-84
2023/03/16 07:04:49;;;;;;;17.35;9.68;;;;;;;11.71;83.43;100037.38;4948736;28;20038;-83
2023/03/16 07:07:16;;;;;;;22.38;13.75;;;;;;;11.78;84.16;100043.88;4949122;28;20054;-83
2023/03/16 07:09:42;;;;;;;8.40;5.05;;;;;;;11.86;84.44;100052.06;4949097;28;20043;-81
2023/03/16 07:12:08;;;;;;;13.55;6.60;;;;;;;11.86;85.18;100044.00;4948993;29;20043;-80
2023/03/16 07:14:33;;;;;;;9.60;3.85;;;;;;;11.79;84.81;100045.59;4932563;29;20035;-80
2023/03/16 07:17:00;;;;;;;6.78;3.13;;;;;;;11.54;85.31;100056.09;4933035;28;20054;-80
2023/03/16 07:19:26;;;;;;;10.70;7.40;;;;;;;11.49;86.18;100051.16;4932638;29;20038;-82
2023/03/16 07:21:52;;;;;;;7.32;3.30;;;;;;;11.46;86.88;100048.78;4948768;29;20637;-81
2023/03/16 07:24:17;;;;;;;14.13;5.55;;;;;;;11.51;86.91;100045.63;4948619;29;20190;-81
2023/03/16 07:26:43;;;;;;;14.27;3.78;;;;;;;11.54;87.07;100046.19;4948925;29;20046;-80
2023/03/16 07:29:09;;;;;;;7.43;3.85;;;;;;;11.54;86.92;100061.50;4950694;28;20031;-83
2023/03/16 07:31:34;;;;;;;3.95;2.63;;;;;;;11.51;87.24;100065.34;4949609;29;20035;-80
2023/03/16 07:34:01;;;;;;;5.30;2.88;;;;;;;11.54;87.70;100061.50;4954347;28;20380;-81
2023/03/16 07:36:27;;;;;;;4.95;2.85;;;;;;;11.53;87.52;100049.88;4956569;28;20043;-80
2023/03/16 07:38:52;;;;;;;5.18;3.08;;;;;;;11.56;87.30;100054.97;4957138;28;20046;-80
2023/03/16 07:41:18;;;;;;;9.80;3.15;;;;;;;11.58;86.68;100066.47;4933249;29;20047;-80
2023/03/16 07:43:43;;;;;;;3.88;2.85;;;;;;;11.66;85.53;100071.97;4933227;29;20130;-81
2023/03/16 07:46:12;;;;;;;16.45;8.65;;;;;;;11.68;85.43;100072.66;4933391;29;20040;-79
2023/03/16 07:48:39;;;;;;;2.95;2.30;;;;;;;11.66;85.09;100077.34;4933150;29;20131;-79
2023/03/16 07:51:04;;;;;;;11.18;4.95;;;;;;;11.64;84.74;100079.34;4933099;29;20118;-79
2023/03/16 07:53:30;;;;;;;15.20;4.63;;;;;;;11.65;84.64;100081.03;4885544;29;20511;-80
2023/03/16 07:55:56;;;;;;;7.32;4.63;;;;;;;11.65;84.56;100083.72;4932875;29;20048;-81
2023/03/16 07:58:22;;;;;;;11.65;5.22;;;;;;;11.59;83.71;100092.38;4932833;29;20157;-79
2023/03/16 08:00:47;;;;;;;4.50;3.50;;;;;;;11.59;83.87;100083.47;4932983;29;20047;-80
2023/03/16 08:03:13;;;;;;;6.28;3.00;;;;;;;11.37;84.47;100088.19;4932965;29;20445;-80
2023/03/16 08:05:38;;;;;;;9.68;4.22;;;;;;;11.36;84.53;100085.63;4933169;29;20151;-80
2023/03/16 08:08:04;;;;;;;9.77;5.25;;;;;;;11.39;84.39;100098.78;4933691;29;20047;-80
2023/03/16 08:10:30;;;;;;;3.55;2.85;;;;;;;11.27;84.28;100103.47;4933001;29;20044;-80
2023/03/16 08:12:55;;;;;;;6.45;3.72;;;;;;;11.25;84.92;100100.06;4949088;29;20066;-81
2023/03/16 08:15:21;;;;;;;7.97;3.63;;;;;;;11.19;84.89;100089.88;4954565;28;20063;-81
2023/03/16 08:17:46;;;;;;;4.10;3.53;;;;;;;11.36;84.78;100108.00;4954718;28;20039;-81
2023/03/16 08:20:14;;;;;;;12.05;4.88;;;;;;;11.35;84.15;100106.31;4954215;28;20031;-79
2023/03/16 08:22:41;;;;;;;7.38;4.10;;;;;;;11.21;83.49;100105.88;4954307;28;20410;-79
2023/03/16 08:25:09;;;;;;;6.13;4.22;;;;;;;11.26;83.82;100117.06;4954703;28;20030;-80
2023/03/16 08:27:36;;;;;;;13.30;5.43;;;;;;;11.21;83.72;100116.66;4954548;28;20031;-80
2023/03/16 08:30:10;;;;;;;10.63;4.78;;;;;;;11.15;83.58;100117.22;4954238;28;20024;-80
2023/03/16 08:32:38;;;;;;;9.55;4.75;;;;;;;11.11;84.00;100110.41;4956361;28;20115;-80
2023/03/16 08:35:04;;;;;;;10.50;5.82;;;;;;;11.15;84.68;100117.22;4958689;28;20109;-80
2023/03/16 08:37:30;;;;;;;6.32;4.75;;;;;;;11.14;84.46;100124.44;4937821;29;20059;-81
2023/03/16 08:39:56;;;;;;;8.02;5.05;;;;;;;11.21;84.40;100127.41;4954035;28;20074;-81
2023/03/16 08:42:22;;;;;;;12.30;6.38;;;;;;;11.23;84.23;100133.50;4953804;28;20051;-80
2023/03/16 08:44:48;;;;;;;14.02;8.35;;;;;;;11.07;84.25;100127.84;4954466;28;20110;-80
2023/03/16 08:47:13;;;;;;;10.35;6.57;;;;;;;11.19;84.67;100132.94;4954016;28;21230;-79
2023/03/16 08:49:40;;;;;;;14.30;6.78;;;;;;;11.25;84.17;100136.91;4953904;28;20462;-80
2023/03/16 08:52:09;;;;;;;8.05;5.80;;;;;;;11.18;83.86;100143.84;4953871;28;20033;-80
2023/03/16 08:54:35;;;;;;;8.40;6.30;;;;;;;11.29;84.14;100138.31;4953887;28;20412;-80
2023/03/16 08:57:00;;;;;;;10.07;7.18;;;;;;;11.29;84.15;100141.00;4952716;28;20091;-79
2023/03/16 08:59:25;;;;;;;20.67;9.77;;;;;;;11.20;83.59;100139.16;4954453;29;20023;-81
2023/03/16 09:01:51;;;;;;;10.02;7.10;;;;;;;11.05;84.04;100141.44;4959947;28;20031;-81
2023/03/16 09:04:17;;;;;;;25.77;19.58;;;;;;;11.05;84.43;100146.81;4960281;28;20097;-79
2023/03/16 09:06:42;;;;;;;16.30;9.63;;;;;;;11.12;84.23;100147.97;4954978;28;20027;-79
2023/03/16 09:09:10;;;;;;;17.10;9.32;;;;;;;11.15;83.65;100155.75;4955773;28;20035;-79
2023/03/16 09:11:36;;;;;;;21.25;9.25;;;;;;;11.17;83.63;100148.38;4954209;28;20506;-80
2023/03/16 09:14:01;;;;;;;24.67;12.18;;;;;;;11.10;83.97;100159.84;4953522;29;20027;-79
2023/03/16 09:16:29;;;;;;;12.07;8.02;;;;;;;11.07;83.16;100165.53;4953484;28;20027;-82
2023/03/16 09:18:55;;;;;;;11.52;8.07;;;;;;;11.05;83.33;100154.03;4953672;28;20150;-83
2023/03/16 09:21:20;;;;;;;75.13;54.30;;;;;;;11.08;83.02;100156.44;4953532;28;20114;-80
2023/03/16 09:23:46;;;;;;;8.95;7.97;;;;;;;11.02;82.93;100162.38;4952955;28;20075;-83
2023/03/16 09:26:12;;;;;;;15.80;8.88;;;;;;;11.00;83.04;100175.13;4953788;28;20719;-82
2023/03/16 09:28:40;;;;;;;13.40;8.30;;;;;;;10.96;82.96;100168.31;4954292;28;20027;-81
2023/03/16 09:31:07;;;;;;;16.13;10.13;;;;;;;10.82;83.34;100169.56;4953807;28;20099;-82
2023/03/16 09:33:34;;;;;;;13.60;10.18;;;;;;;10.77;83.97;100167.28;4955256;28;20023;-81
2023/03/16 09:36:01;;;;;;;13.13;9.65;;;;;;;10.73;84.16;100179.28;4953062;29;20047;-79
2023/03/16 09:38:26;;;;;;;13.10;8.77;;;;;;;10.71;84.29;100183.97;4953000;28;20108;-79
2023/03/16 09:41:07;;;;;;;10.43;8.32;;;;;;;10.72;83.83;100188.38;4953012;28;20483;-80
2023/03/16 09:43:50;;;;;;;11.85;8.15;;;;;;;10.67;84.32;100185.22;4952698;28;20035;-79
2023/03/16 09:46:32;;;;;;;15.05;9.60;;;;;;;10.69;84.58;100198.53;4952550;28;20082;-79
2023/03/16 09:48:58;;;;;;;16.38;10.73;;;;;;;10.79;84.94;100194.88;4952597;28;20031;-81
2023/03/16 09:51:32;;;;;;;17.92;9.80;;;;;;;10.81;84.56;100203.69;4953097;29;20027;-80
2023/03/16 09:54:02;;;;;;;12.40;9.82;;;;;;;10.86;84.58;100196.03;4953058;28;20035;-80
2023/03/16 09:56:39;;;;;;;22.52;12.23;;;;;;;10.97;84.78;100203.16;4952296;28;20109;-81
2023/03/16 09:59:13;;;;;;;16.80;10.65;;;;;;;11.10;85.04;100211.00;4952165;28;20579;-81
2023/03/16 10:01:54;;;;;;;16.35;9.30;;;;;;;11.12;84.25;100217.06;4934104;28;20055;-79
2023/03/16 10:04:37;;;;;;;17.13;9.98;;;;;;;11.21;83.07;100213.56;4952473;28;20112;-81
2023/03/16 10:07:29;;;;;;;16.35;9.40;;;;;;;11.24;82.82;100218.66;4952610;28;20039;-81
2023/03/16 10:10:02;;;;;;;11.07;8.30;;;;;;;11.13;82.86;100219.59;4955176;28;20039;-83
2023/03/16 10:12:40;;;;;;;11.50;9.30;;;;;;;11.21;82.87;100218.94;4953565;28;20471;-81
2023/03/16 10:15:10;;;;;;;10.25;8.30;;;;;;;11.24;82.76;100227.59;4952919;28;20039;-81
2023/03/16 10:18:10;;;;;;;13.27;9.40;;;;;;;11.24;83.40;100221.34;4952535;28;20062;-79
2023/03/16 10:20:35;;;;;;;14.27;9.38;;;;;;;11.01;83.29;100227.97;4952289;28;20027;-79
2023/03/16 10:23:16;;;;;;;16.42;9.57;;;;;;;10.89;83.67;100222.66;4952249;29;20509;-80
2023/03/16 10:25:53;;;;;;;13.25;7.93;;;;;;;10.73;84.53;100230.38;4952455;28;20035;-80
2023/03/16 10:28:25;;;;;;;15.10;9.00;;;;;;;10.66;84.45;100205.03;4951934;28;20509;-80
2023/03/16 10:30:53;;;;;;;23.55;10.25;;;;;;;10.71;85.58;100228.81;4955669;28;20031;-81
2023/03/16 10:33:27;;;;;;;15.75;10.52;;;;;;;10.69;85.77;100220.91;4958564;28;20507;-80
2023/03/16 10:35:56;;;;;;;21.67;12.02;;;;;;;10.78;85.85;100230.00;4953418;28;20130;-79
2023/03/16 10:38:48;;;;;;;13.77;10.40;;;;;;;10.81;85.19;100219.81;4952283;28;20058;-80
2023/03/16 10:41:19;;;;;;;14.27;10.32;;;;;;;10.73;84.59;100216.94;4892483;29;20173;-80
2023/03/16 10:43:53;;;;;;;16.73;9.40;;;;;;;10.82;84.82;100223.38;4892715;29;20523;-80
2023/03/16 10:46:18;;;;;;;14.10;8.80;;;;;;;10.84;84.23;100226.75;4892233;29;20051;-80
2023/03/16 10:48:58;;;;;;;20.77;9.30;;;;;;;10.85;84.32;100225.78;4892517;29;20449;-80
2023/03/16 10:51:28;;;;;;;14.48;10.55;;;;;;;10.87;83.82;100221.97;4892159;29;20036;-80
2023/03/16 10:54:00;;;;;;;16.75;9.52;;;;;;;11.00;83.33;100234.31;4891985;29;20040;-81
2023/03/16 10:56:34;;;;;;;12.18;9.35;;;;;;;11.16;83.67;100234.66;4892133;29;20407;-80
2023/03/16 10:58:59;;;;;;;14.73;8.73;;;;;;;11.07;82.96;100230.09;4892388;29;20060;-80
2023/03/16 11:01:27;;;;;;;8.95;7.85;;;;;;;11.08;82.73;100229.09;4892272;29;20141;-80
2023/03/16 11:03:55;;;;;;;12.18;7.72;;;;;;;10.95;82.90;100239.28;4894692;29;20640;-80
2023/03/16 11:06:29;;;;;;;16.13;9.15;;;;;;;11.14;82.78;100242.84;4892175;29;20041;-82
2023/03/16 11:09:11;;;;;;;10.32;8.40;;;;;;;11.24;83.10;100245.56;4891993;29;20040;-81
2023/03/16 11:11:37;;;;;;;9.77;7.90;;;;;;;11.20;82.55;100236.06;4892132;29;20096;-80
2023/03/16 11:14:11;;;;;;;13.30;8.32;;;;;;;11.17;81.44;100228.25;4898778;29;20064;-80
2023/03/16 11:16:52;;;;;;;17.85;9.65;;;;;;;11.37;81.28;100243.47;4899321;29;20039;-82
2023/03/16 11:19:26;;;;;;;13.85;9.90;;;;;;;11.48;81.26;100229.88;4955084;29;20050;-80